Willow Hill, Pennsylvania
Current Conditions -  °F | °C
As of 2:53 AM on Thursday 29 Jan 2015 (Local Time) from KHGR Reporting Station
Clear Clear  
Wind Chill: 16°   Ceiling: Unl
Heat Index: 16°   Visibility: 10mi
Dew Point:   Wind: 0mph
Humidity: 59%   Direction: NA
Pressure: 30.31"   Gusts: NA
Location:  40.11°N, 77.79°W
Report Text: KHGR 290753Z AUTO 00000KT 10SM CLR M09/M16 A3031 RMK AO2 SLP285 T10891156 TSNO
Loading
Personal Weather Stations






























Interactive Weather Map New forecast layout! Learn more

10-Day Weather Forecast

Advertisements
Track Severe Weather on mobile